sensor_id;sensor_type;location;lat;lon;timestamp;P1;durP1;ratioP1;P2;durP2;ratioP2
417;SDS011;49;48.530;9.200;2023-12-07T00:00:11;18.70;;;13.87;;
417;SDS011;49;48.530;9.200;2023-12-07T00:02:39;18.70;;;10.33;;
417;SDS011;49;48.530;9.200;2023-12-07T00:05:07;19.13;;;12.90;;
417;SDS011;49;48.530;9.200;2023-12-07T00:07:34;17.07;;;12.03;;
417;SDS011;49;48.530;9.200;2023-12-07T00:10:01;19.10;;;11.60;;
417;SDS011;49;48.530;9.200;2023-12-07T00:12:28;20.90;;;12.93;;
417;SDS011;49;48.530;9.200;2023-12-07T00:14:55;20.43;;;12.20;;
417;SDS011;49;48.530;9.200;2023-12-07T00:17:22;12.80;;;9.07;;
417;SDS011;49;48.530;9.200;2023-12-07T00:19:50;17.37;;;10.83;;
417;SDS011;49;48.530;9.200;2023-12-07T00:22:20;25.77;;;12.13;;
417;SDS011;49;48.530;9.200;2023-12-07T00:24:49;14.03;;;9.73;;
417;SDS011;49;48.530;9.200;2023-12-07T00:27:16;12.60;;;9.57;;
417;SDS011;49;48.530;9.200;2023-12-07T00:29:43;18.03;;;10.03;;
417;SDS011;49;48.530;9.200;2023-12-07T00:32:27;15.03;;;11.10;;
417;SDS011;49;48.530;9.200;2023-12-07T00:34:58;19.47;;;11.73;;
417;SDS011;49;48.530;9.200;2023-12-07T00:37:26;14.80;;;10.37;;
417;SDS011;49;48.530;9.200;2023-12-07T00:39:54;18.00;;;11.37;;
417;SDS011;49;48.530;9.200;2023-12-07T00:42:21;18.20;;;11.23;;
417;SDS011;49;48.530;9.200;2023-12-07T00:44:48;15.23;;;9.83;;
417;SDS011;49;48.530;9.200;2023-12-07T00:47:15;17.57;;;10.00;;
417;SDS011;49;48.530;9.200;2023-12-07T00:49:46;16.33;;;10.17;;
417;SDS011;49;48.530;9.200;2023-12-07T00:52:13;16.37;;;10.97;;
417;SDS011;49;48.530;9.200;2023-12-07T00:54:41;15.30;;;11.60;;
417;SDS011;49;48.530;9.200;2023-12-07T00:57:09;18.23;;;12.37;;
417;SDS011;49;48.530;9.200;2023-12-07T00:59:36;14.20;;;9.13;;
417;SDS011;49;48.530;9.200;2023-12-07T01:02:15;13.40;;;10.07;;
417;SDS011;49;48.530;9.200;2023-12-07T01:04:42;15.23;;;10.73;;
417;SDS011;49;48.530;9.200;2023-12-07T01:07:09;16.30;;;10.60;;
417;SDS011;49;48.530;9.200;2023-12-07T01:09:36;16.03;;;10.73;;
417;SDS011;49;48.530;9.200;2023-12-07T01:12:04;17.53;;;11.90;;
417;SDS011;49;48.530;9.200;2023-12-07T01:14:31;15.77;;;10.77;;
417;SDS011;49;48.530;9.200;2023-12-07T01:16:58;18.33;;;11.50;;
417;SDS011;49;48.530;9.200;2023-12-07T01:19:25;15.87;;;11.47;;
417;SDS011;49;48.530;9.200;2023-12-07T01:21:52;14.70;;;10.00;;
417;SDS011;49;48.530;9.200;2023-12-07T01:24:19;13.70;;;9.17;;
417;SDS011;49;48.530;9.200;2023-12-07T01:26:46;15.50;;;10.20;;
417;SDS011;49;48.530;9.200;2023-12-07T01:29:15;15.93;;;10.23;;
417;SDS011;49;48.530;9.200;2023-12-07T01:31:43;14.13;;;10.23;;
417;SDS011;49;48.530;9.200;2023-12-07T01:34:10;18.50;;;11.03;;
417;SDS011;49;48.530;9.200;2023-12-07T01:36:37;20.40;;;10.90;;
417;SDS011;49;48.530;9.200;2023-12-07T01:39:05;16.57;;;9.93;;
417;SDS011;49;48.530;9.200;2023-12-07T01:41:33;17.23;;;11.27;;
417;SDS011;49;48.530;9.200;2023-12-07T01:44:00;17.27;;;12.07;;
417;SDS011;49;48.530;9.200;2023-12-07T01:46:30;16.63;;;10.93;;
417;SDS011;49;48.530;9.200;2023-12-07T01:48:58;11.90;;;8.70;;
417;SDS011;49;48.530;9.200;2023-12-07T01:51:25;14.47;;;10.73;;
417;SDS011;49;48.530;9.200;2023-12-07T01:53:53;14.80;;;10.70;;
417;SDS011;49;48.530;9.200;2023-12-07T01:56:21;14.40;;;10.70;;
417;SDS011;49;48.530;9.200;2023-12-07T01:58:49;16.33;;;10.70;;
417;SDS011;49;48.530;9.200;2023-12-07T02:01:17;14.20;;;10.03;;
417;SDS011;49;48.530;9.200;2023-12-07T02:03:45;17.40;;;9.30;;
417;SDS011;49;48.530;9.200;2023-12-07T02:06:13;16.80;;;10.33;;
417;SDS011;49;48.530;9.200;2023-12-07T02:08:40;12.30;;;8.90;;
417;SDS011;49;48.530;9.200;2023-12-07T02:11:07;17.80;;;11.90;;
417;SDS011;49;48.530;9.200;2023-12-07T02:13:35;17.43;;;11.60;;
417;SDS011;49;48.530;9.200;2023-12-07T02:16:03;18.07;;;12.87;;
417;SDS011;49;48.530;9.200;2023-12-07T02:18:38;18.70;;;13.53;;
417;SDS011;49;48.530;9.200;2023-12-07T02:21:13;19.03;;;13.00;;
417;SDS011;49;48.530;9.200;2023-12-07T02:23:46;18.53;;;13.40;;
417;SDS011;49;48.530;9.200;2023-12-07T02:26:15;18.23;;;13.13;;
417;SDS011;49;48.530;9.200;2023-12-07T02:28:49;27.43;;;14.80;;
417;SDS011;49;48.530;9.200;2023-12-07T02:31:17;18.50;;;13.70;;
417;SDS011;49;48.530;9.200;2023-12-07T02:33:44;22.10;;;14.77;;
417;SDS011;49;48.530;9.200;2023-12-07T02:36:12;24.30;;;14.30;;
417;SDS011;49;48.530;9.200;2023-12-07T02:38:41;20.80;;;14.40;;
417;SDS011;49;48.530;9.200;2023-12-07T02:41:13;23.50;;;14.70;;
417;SDS011;49;48.530;9.200;2023-12-07T02:43:41;22.30;;;15.67;;
417;SDS011;49;48.530;9.200;2023-12-07T02:46:10;28.90;;;17.00;;
417;SDS011;49;48.530;9.200;2023-12-07T02:48:37;27.90;;;16.80;;
417;SDS011;49;48.530;9.200;2023-12-07T02:51:04;32.33;;;17.30;;
417;SDS011;49;48.530;9.200;2023-12-07T02:53:31;25.00;;;17.30;;
417;SDS011;49;48.530;9.200;2023-12-07T02:55:59;23.27;;;16.03;;
417;SDS011;49;48.530;9.200;2023-12-07T02:58:26;27.60;;;17.10;;
417;SDS011;49;48.530;9.200;2023-12-07T03:00:53;23.10;;;17.03;;
417;SDS011;49;48.530;9.200;2023-12-07T03:03:21;27.53;;;17.70;;
417;SDS011;49;48.530;9.200;2023-12-07T03:05:48;27.70;;;17.03;;
417;SDS011;49;48.530;9.200;2023-12-07T03:08:16;32.47;;;17.17;;
417;SDS011;49;48.530;9.200;2023-12-07T03:10:42;22.00;;;15.20;;
417;SDS011;49;48.530;9.200;2023-12-07T03:13:09;25.90;;;18.20;;
417;SDS011;49;48.530;9.200;2023-12-07T03:15:36;26.30;;;18.40;;
417;SDS011;49;48.530;9.200;2023-12-07T03:18:04;27.93;;;18.73;;
417;SDS011;49;48.530;9.200;2023-12-07T03:20:33;26.90;;;18.87;;
417;SDS011;49;48.530;9.200;2023-12-07T03:23:01;21.67;;;14.60;;
417;SDS011;49;48.530;9.200;2023-12-07T03:25:29;25.40;;;17.03;;
417;SDS011;49;48.530;9.200;2023-12-07T03:27:56;24.83;;;16.53;;
417;SDS011;49;48.530;9.200;2023-12-07T03:30:23;25.70;;;19.43;;
417;SDS011;49;48.530;9.200;2023-12-07T03:32:50;28.40;;;17.43;;
417;SDS011;49;48.530;9.200;2023-12-07T03:35:17;31.03;;;19.50;;
417;SDS011;49;48.530;9.200;2023-12-07T03:37:46;27.97;;;18.80;;
417;SDS011;49;48.530;9.200;2023-12-07T03:40:12;26.13;;;19.47;;
417;SDS011;49;48.530;9.200;2023-12-07T03:42:39;26.33;;;19.37;;
417;SDS011;49;48.530;9.200;2023-12-07T03:45:06;24.50;;;18.33;;
417;SDS011;49;48.530;9.200;2023-12-07T03:47:34;28.13;;;19.60;;
417;SDS011;49;48.530;9.200;2023-12-07T03:50:01;25.47;;;18.57;;
417;SDS011;49;48.530;9.200;2023-12-07T03:52:28;27.67;;;18.57;;
417;SDS011;49;48.530;9.200;2023-12-07T03:54:56;34.30;;;20.17;;
417;SDS011;49;48.530;9.200;2023-12-07T03:57:23;31.80;;;18.90;;
417;SDS011;49;48.530;9.200;2023-12-07T03:59:50;21.10;;;15.67;;
417;SDS011;49;48.530;9.200;2023-12-07T04:02:18;28.53;;;18.27;;
417;SDS011;49;48.530;9.200;2023-12-07T04:04:45;26.90;;;17.37;;
417;SDS011;49;48.530;9.200;2023-12-07T04:07:12;31.80;;;19.53;;
417;SDS011;49;48.530;9.200;2023-12-07T04:09:39;24.63;;;16.43;;
417;SDS011;49;48.530;9.200;2023-12-07T04:12:08;25.27;;;16.23;;
417;SDS011;49;48.530;9.200;2023-12-07T04:14:34;24.63;;;17.00;;
417;SDS011;49;48.530;9.200;2023-12-07T04:17:01;34.13;;;19.13;;
417;SDS011;49;48.530;9.200;2023-12-07T04:19:28;24.60;;;18.70;;
417;SDS011;49;48.530;9.200;2023-12-07T04:21:55;25.37;;;17.70;;
417;SDS011;49;48.530;9.200;2023-12-07T04:24:22;27.93;;;17.30;;
417;SDS011;49;48.530;9.200;2023-12-07T04:26:49;28.50;;;18.03;;
417;SDS011;49;48.530;9.200;2023-12-07T04:29:17;27.80;;;19.20;;
417;SDS011;49;48.530;9.200;2023-12-07T04:31:44;28.87;;;19.27;;
417;SDS011;49;48.530;9.200;2023-12-07T04:34:11;32.20;;;19.93;;
417;SDS011;49;48.530;9.200;2023-12-07T04:36:38;26.60;;;18.33;;
417;SDS011;49;48.530;9.200;2023-12-07T04:39:05;28.60;;;19.90;;
417;SDS011;49;48.530;9.200;2023-12-07T04:41:33;35.50;;;22.93;;
417;SDS011;49;48.530;9.200;2023-12-07T04:44:00;33.40;;;22.47;;
417;SDS011;49;48.530;9.200;2023-12-07T04:46:28;33.83;;;21.60;;
417;SDS011;49;48.530;9.200;2023-12-07T04:48:55;37.50;;;23.80;;
417;SDS011;49;48.530;9.200;2023-12-07T04:51:22;35.47;;;24.00;;
417;SDS011;49;48.530;9.200;2023-12-07T04:53:49;31.57;;;22.00;;
417;SDS011;49;48.530;9.200;2023-12-07T04:56:16;32.93;;;22.03;;
417;SDS011;49;48.530;9.200;2023-12-07T04:58:43;35.13;;;22.57;;
417;SDS011;49;48.530;9.200;2023-12-07T05:01:10;38.63;;;25.77;;
417;SDS011;49;48.530;9.200;2023-12-07T05:03:39;43.87;;;26.37;;
417;SDS011;49;48.530;9.200;2023-12-07T05:06:06;36.47;;;23.10;;
417;SDS011;49;48.530;9.200;2023-12-07T05:08:33;24.80;;;17.23;;
417;SDS011;49;48.530;9.200;2023-12-07T05:11:00;29.67;;;20.53;;
417;SDS011;49;48.530;9.200;2023-12-07T05:13:27;28.50;;;19.17;;
417;SDS011;49;48.530;9.200;2023-12-07T05:15:54;29.13;;;20.27;;
417;SDS011;49;48.530;9.200;2023-12-07T05:18:22;37.40;;;25.73;;
417;SDS011;49;48.530;9.200;2023-12-07T05:20:50;36.70;;;25.43;;
417;SDS011;49;48.530;9.200;2023-12-07T05:23:17;41.80;;;25.83;;
417;SDS011;49;48.530;9.200;2023-12-07T05:25:44;44.67;;;25.97;;
417;SDS011;49;48.530;9.200;2023-12-07T05:28:11;44.00;;;28.33;;
417;SDS011;49;48.530;9.200;2023-12-07T05:30:38;48.17;;;28.63;;
417;SDS011;49;48.530;9.200;2023-12-07T05:33:06;42.87;;;26.23;;
417;SDS011;49;48.530;9.200;2023-12-07T05:35:33;34.63;;;24.20;;
417;SDS011;49;48.530;9.200;2023-12-07T05:38:01;40.57;;;25.23;;
417;SDS011;49;48.530;9.200;2023-12-07T05:40:29;29.30;;;20.10;;
417;SDS011;49;48.530;9.200;2023-12-07T05:42:57;24.00;;;16.40;;
417;SDS011;49;48.530;9.200;2023-12-07T05:45:24;26.53;;;17.97;;
417;SDS011;49;48.530;9.200;2023-12-07T05:47:51;23.53;;;16.57;;
417;SDS011;49;48.530;9.200;2023-12-07T05:50:18;31.60;;;18.33;;
417;SDS011;49;48.530;9.200;2023-12-07T05:52:45;24.27;;;16.37;;
417;SDS011;49;48.530;9.200;2023-12-07T05:55:14;25.77;;;16.90;;
417;SDS011;49;48.530;9.200;2023-12-07T05:57:41;27.00;;;17.73;;
417;SDS011;49;48.530;9.200;2023-12-07T06:00:11;26.97;;;17.27;;
417;SDS011;49;48.530;9.200;2023-12-07T06:02:41;22.20;;;16.77;;
417;SDS011;49;48.530;9.200;2023-12-07T06:05:09;30.10;;;18.50;;
417;SDS011;49;48.530;9.200;2023-12-07T06:07:39;24.10;;;17.40;;
417;SDS011;49;48.530;9.200;2023-12-07T06:10:08;24.67;;;17.17;;
417;SDS011;49;48.530;9.200;2023-12-07T06:12:39;28.57;;;19.33;;
417;SDS011;49;48.530;9.200;2023-12-07T06:15:16;28.77;;;18.17;;
417;SDS011;49;48.530;9.200;2023-12-07T06:17:45;28.97;;;18.00;;
417;SDS011;49;48.530;9.200;2023-12-07T06:20:14;27.47;;;19.10;;
417;SDS011;49;48.530;9.200;2023-12-07T06:22:42;26.70;;;19.00;;
417;SDS011;49;48.530;9.200;2023-12-07T06:25:09;36.07;;;23.90;;
417;SDS011;49;48.530;9.200;2023-12-07T06:27:36;38.30;;;22.53;;
417;SDS011;49;48.530;9.200;2023-12-07T06:32:41;43.87;;;27.00;;
417;SDS011;49;48.530;9.200;2023-12-07T06:35:10;45.03;;;26.30;;
417;SDS011;49;48.530;9.200;2023-12-07T06:37:39;47.80;;;28.57;;
417;SDS011;49;48.530;9.200;2023-12-07T06:40:07;45.30;;;27.43;;
417;SDS011;49;48.530;9.200;2023-12-07T06:42:35;40.23;;;27.13;;
417;SDS011;49;48.530;9.200;2023-12-07T06:45:05;70.13;;;27.80;;
417;SDS011;49;48.530;9.200;2023-12-07T06:47:36;47.73;;;29.63;;
417;SDS011;49;48.530;9.200;2023-12-07T06:50:03;41.47;;;27.57;;
417;SDS011;49;48.530;9.200;2023-12-07T06:52:33;62.73;;;27.90;;
417;SDS011;49;48.530;9.200;2023-12-07T06:55:00;45.13;;;28.93;;
417;SDS011;49;48.530;9.200;2023-12-07T06:57:27;48.63;;;27.77;;
417;SDS011;49;48.530;9.200;2023-12-07T06:59:54;43.33;;;26.93;;
417;SDS011;49;48.530;9.200;2023-12-07T07:02:22;43.47;;;26.67;;
417;SDS011;49;48.530;9.200;2023-12-07T07:04:50;53.83;;;27.97;;
417;SDS011;49;48.530;9.200;2023-12-07T07:07:17;52.00;;;27.70;;
417;SDS011;49;48.530;9.200;2023-12-07T07:09:45;59.33;;;25.33;;
417;SDS011;49;48.530;9.200;2023-12-07T07:12:12;75.80;;;26.13;;
417;SDS011;49;48.530;9.200;2023-12-07T07:14:38;75.90;;;27.80;;
417;SDS011;49;48.530;9.200;2023-12-07T07:17:07;54.77;;;27.70;;
417;SDS011;49;48.530;9.200;2023-12-07T07:19:35;102.83;;;31.50;;
417;SDS011;49;48.530;9.200;2023-12-07T07:22:03;72.10;;;32.63;;
417;SDS011;49;48.530;9.200;2023-12-07T07:24:31;59.47;;;30.90;;
417;SDS011;49;48.530;9.200;2023-12-07T07:27:00;58.70;;;31.27;;
417;SDS011;49;48.530;9.200;2023-12-07T07:29:28;63.63;;;30.47;;
417;SDS011;49;48.530;9.200;2023-12-07T07:31:55;56.90;;;32.60;;
417;SDS011;49;48.530;9.200;2023-12-07T07:34:22;52.93;;;32.13;;
417;SDS011;49;48.530;9.200;2023-12-07T07:36:53;54.30;;;33.80;;
417;SDS011;49;48.530;9.200;2023-12-07T07:39:20;48.60;;;30.30;;
417;SDS011;49;48.530;9.200;2023-12-07T07:41:48;52.73;;;32.10;;
417;SDS011;49;48.530;9.200;2023-12-07T07:44:15;55.30;;;31.00;;
417;SDS011;49;48.530;9.200;2023-12-07T07:46:42;47.97;;;30.60;;
417;SDS011;49;48.530;9.200;2023-12-07T07:49:09;50.50;;;29.90;;
417;SDS011;49;48.530;9.200;2023-12-07T07:51:37;53.63;;;31.20;;
417;SDS011;49;48.530;9.200;2023-12-07T07:54:06;46.57;;;29.03;;
417;SDS011;49;48.530;9.200;2023-12-07T07:56:35;42.00;;;27.53;;
417;SDS011;49;48.530;9.200;2023-12-07T07:59:04;65.47;;;32.27;;
417;SDS011;49;48.530;9.200;2023-12-07T08:01:31;61.30;;;29.60;;
417;SDS011;49;48.530;9.200;2023-12-07T08:03:58;100.70;;;35.33;;
417;SDS011;49;48.530;9.200;2023-12-07T08:06:25;95.07;;;32.77;;
417;SDS011;49;48.530;9.200;2023-12-07T08:08:52;122.57;;;33.83;;
417;SDS011;49;48.530;9.200;2023-12-07T08:11:21;106.13;;;32.03;;
417;SDS011;49;48.530;9.200;2023-12-07T08:13:48;92.00;;;33.10;;
417;SDS011;49;48.530;9.200;2023-12-07T08:16:17;65.53;;;28.37;;
417;SDS011;49;48.530;9.200;2023-12-07T08:18:44;114.40;;;31.63;;
417;SDS011;49;48.530;9.200;2023-12-07T08:21:18;69.37;;;30.47;;
417;SDS011;49;48.530;9.200;2023-12-07T08:23:45;64.50;;;29.97;;
417;SDS011;49;48.530;9.200;2023-12-07T08:26:13;67.47;;;29.83;;
417;SDS011;49;48.530;9.200;2023-12-07T08:28:42;50.53;;;29.10;;
417;SDS011;49;48.530;9.200;2023-12-07T08:31:09;71.27;;;30.00;;
417;SDS011;49;48.530;9.200;2023-12-07T08:33:36;58.03;;;28.83;;
417;SDS011;49;48.530;9.200;2023-12-07T08:36:04;61.03;;;31.13;;
417;SDS011;49;48.530;9.200;2023-12-07T08:38:32;60.27;;;31.20;;
417;SDS011;49;48.530;9.200;2023-12-07T08:40:59;55.43;;;28.43;;
417;SDS011;49;48.530;9.200;2023-12-07T08:43:26;58.80;;;29.57;;
417;SDS011;49;48.530;9.200;2023-12-07T08:45:58;79.93;;;31.90;;
417;SDS011;49;48.530;9.200;2023-12-07T08:48:24;60.33;;;29.53;;
417;SDS011;49;48.530;9.200;2023-12-07T08:50:51;71.93;;;30.00;;
417;SDS011;49;48.530;9.200;2023-12-07T08:53:18;85.70;;;30.87;;
417;SDS011;49;48.530;9.200;2023-12-07T08:55:45;102.53;;;28.97;;
417;SDS011;49;48.530;9.200;2023-12-07T08:58:12;144.00;;;28.90;;
417;SDS011;49;48.530;9.200;2023-12-07T09:00:39;114.90;;;28.03;;
417;SDS011;49;48.530;9.200;2023-12-07T09:03:07;126.17;;;26.33;;
417;SDS011;49;48.530;9.200;2023-12-07T09:05:34;58.07;;;27.03;;
417;SDS011;49;48.530;9.200;2023-12-07T09:08:01;115.23;;;25.53;;
417;SDS011;49;48.530;9.200;2023-12-07T09:10:28;93.23;;;28.30;;
417;SDS011;49;48.530;9.200;2023-12-07T09:12:55;58.13;;;28.90;;
417;SDS011;49;48.530;9.200;2023-12-07T09:15:22;50.63;;;26.50;;
417;SDS011;49;48.530;9.200;2023-12-07T09:17:49;60.57;;;27.77;;
417;SDS011;49;48.530;9.200;2023-12-07T09:20:17;59.47;;;25.77;;
417;SDS011;49;48.530;9.200;2023-12-07T09:22:45;37.57;;;25.67;;
417;SDS011;49;48.530;9.200;2023-12-07T09:25:13;37.80;;;25.27;;
417;SDS011;49;48.530;9.200;2023-12-07T09:27:42;35.47;;;24.70;;
417;SDS011;49;48.530;9.200;2023-12-07T09:30:09;35.90;;;23.60;;
417;SDS011;49;48.530;9.200;2023-12-07T09:32:37;31.50;;;22.43;;
417;SDS011;49;48.530;9.200;2023-12-07T09:35:05;31.57;;;23.00;;
417;SDS011;49;48.530;9.200;2023-12-07T09:37:34;32.53;;;23.80;;
417;SDS011;49;48.530;9.200;2023-12-07T09:40:02;31.07;;;22.73;;
417;SDS011;49;48.530;9.200;2023-12-07T09:42:30;31.07;;;22.60;;
417;SDS011;49;48.530;9.200;2023-12-07T09:44:58;37.27;;;23.47;;
417;SDS011;49;48.530;9.200;2023-12-07T09:47:25;37.53;;;23.80;;
417;SDS011;49;48.530;9.200;2023-12-07T09:49:53;47.37;;;25.13;;
417;SDS011;49;48.530;9.200;2023-12-07T09:52:21;54.03;;;23.40;;
417;SDS011;49;48.530;9.200;2023-12-07T09:54:50;51.47;;;24.37;;
417;SDS011;49;48.530;9.200;2023-12-07T09:57:18;40.50;;;23.90;;
417;SDS011;49;48.530;9.200;2023-12-07T09:59:46;41.90;;;24.87;;
417;SDS011;49;48.530;9.200;2023-12-07T10:02:14;38.17;;;24.17;;
417;SDS011;49;48.530;9.200;2023-12-07T10:04:41;36.03;;;24.43;;
417;SDS011;49;48.530;9.200;2023-12-07T10:07:09;36.70;;;24.37;;
417;SDS011;49;48.530;9.200;2023-12-07T10:09:38;60.57;;;25.27;;
417;SDS011;49;48.530;9.200;2023-12-07T10:12:09;79.83;;;25.83;;
417;SDS011;49;48.530;9.200;2023-12-07T10:14:38;45.33;;;27.37;;
417;SDS011;49;48.530;9.200;2023-12-07T10:17:05;82.67;;;28.37;;
417;SDS011;49;48.530;9.200;2023-12-07T10:19:32;64.63;;;25.23;;
417;SDS011;49;48.530;9.200;2023-12-07T10:21:59;42.03;;;26.53;;
417;SDS011;49;48.530;9.200;2023-12-07T10:24:26;46.33;;;25.50;;
417;SDS011;49;48.530;9.200;2023-12-07T10:26:53;73.63;;;23.30;;
417;SDS011;49;48.530;9.200;2023-12-07T10:29:23;47.03;;;24.73;;
417;SDS011;49;48.530;9.200;2023-12-07T10:31:51;52.30;;;24.90;;
417;SDS011;49;48.530;9.200;2023-12-07T10:34:25;41.20;;;23.40;;
417;SDS011;49;48.530;9.200;2023-12-07T10:36:53;39.90;;;23.83;;
417;SDS011;49;48.530;9.200;2023-12-07T10:39:21;32.10;;;22.80;;
417;SDS011;49;48.530;9.200;2023-12-07T10:41:49;33.67;;;22.83;;
417;SDS011;49;48.530;9.200;2023-12-07T10:44:23;35.20;;;22.57;;
417;SDS011;49;48.530;9.200;2023-12-07T10:46:54;34.47;;;22.17;;
417;SDS011;49;48.530;9.200;2023-12-07T10:49:24;32.17;;;21.97;;
417;SDS011;49;48.530;9.200;2023-12-07T10:51:54;36.70;;;24.27;;
417;SDS011;49;48.530;9.200;2023-12-07T10:54:27;34.83;;;24.57;;
417;SDS011;49;48.530;9.200;2023-12-07T10:57:04;31.80;;;21.83;;
417;SDS011;49;48.530;9.200;2023-12-07T10:59:33;32.17;;;22.67;;
417;SDS011;49;48.530;9.200;2023-12-07T11:02:03;36.33;;;23.10;;
417;SDS011;49;48.530;9.200;2023-12-07T11:04:35;29.30;;;19.83;;
417;SDS011;49;48.530;9.200;2023-12-07T11:07:06;33.90;;;22.30;;
417;SDS011;49;48.530;9.200;2023-12-07T11:09:38;28.43;;;21.13;;
417;SDS011;49;48.530;9.200;2023-12-07T11:12:17;29.20;;;19.90;;
417;SDS011;49;48.530;9.200;2023-12-07T11:14:51;26.27;;;18.03;;
417;SDS011;49;48.530;9.200;2023-12-07T11:17:19;29.73;;;18.23;;
417;SDS011;49;48.530;9.200;2023-12-07T11:19:47;29.80;;;18.20;;
417;SDS011;49;48.530;9.200;2023-12-07T11:22:15;25.10;;;16.80;;
417;SDS011;49;48.530;9.200;2023-12-07T11:24:53;23.50;;;17.03;;
417;SDS011;49;48.530;9.200;2023-12-07T11:27:28;27.73;;;16.73;;
417;SDS011;49;48.530;9.200;2023-12-07T11:30:01;27.27;;;17.80;;
417;SDS011;49;48.530;9.200;2023-12-07T11:32:30;23.90;;;15.70;;
417;SDS011;49;48.530;9.200;2023-12-07T11:35:02;21.53;;;15.10;;
417;SDS011;49;48.530;9.200;2023-12-07T11:40:31;21.03;;;13.60;;
417;SDS011;49;48.530;9.200;2023-12-07T11:43:02;34.50;;;21.90;;
417;SDS011;49;48.530;9.200;2023-12-07T11:45:38;32.73;;;18.77;;
417;SDS011;49;48.530;9.200;2023-12-07T11:48:15;27.00;;;14.73;;
417;SDS011;49;48.530;9.200;2023-12-07T11:50:54;23.50;;;11.67;;
417;SDS011;49;48.530;9.200;2023-12-07T11:53:22;18.60;;;13.03;;
417;SDS011;49;48.530;9.200;2023-12-07T11:55:51;14.60;;;10.93;;
417;SDS011;49;48.530;9.200;2023-12-07T11:58:20;21.70;;;12.13;;
417;SDS011;49;48.530;9.200;2023-12-07T12:00:50;15.50;;;10.83;;
417;SDS011;49;48.530;9.200;2023-12-07T12:03:18;15.80;;;10.60;;
417;SDS011;49;48.530;9.200;2023-12-07T12:05:59;16.60;;;10.53;;
417;SDS011;49;48.530;9.200;2023-12-07T12:08:28;21.43;;;10.87;;
417;SDS011;49;48.530;9.200;2023-12-07T12:10:55;19.40;;;12.03;;
417;SDS011;49;48.530;9.200;2023-12-07T12:13:25;14.87;;;10.20;;
417;SDS011;49;48.530;9.200;2023-12-07T12:15:58;15.30;;;10.30;;
417;SDS011;49;48.530;9.200;2023-12-07T12:18:26;19.33;;;10.97;;
417;SDS011;49;48.530;9.200;2023-12-07T12:20:53;17.77;;;10.87;;
417;SDS011;49;48.530;9.200;2023-12-07T12:23:22;35.57;;;14.27;;
417;SDS011;49;48.530;9.200;2023-12-07T12:25:49;31.20;;;13.57;;
417;SDS011;49;48.530;9.200;2023-12-07T12:28:17;40.83;;;15.90;;
417;SDS011;49;48.530;9.200;2023-12-07T12:30:48;30.13;;;12.00;;
417;SDS011;49;48.530;9.200;2023-12-07T12:33:18;28.27;;;12.20;;
417;SDS011;49;48.530;9.200;2023-12-07T12:35:45;37.10;;;13.97;;
417;SDS011;49;48.530;9.200;2023-12-07T12:38:13;53.80;;;20.33;;
417;SDS011;49;48.530;9.200;2023-12-07T12:40:40;13.70;;;4.47;;
417;SDS011;49;48.530;9.200;2023-12-07T12:43:08;5.53;;;3.93;;
417;SDS011;49;48.530;9.200;2023-12-07T12:45:38;6.77;;;4.13;;
417;SDS011;49;48.530;9.200;2023-12-07T12:48:08;5.53;;;3.80;;
417;SDS011;49;48.530;9.200;2023-12-07T12:50:37;5.00;;;3.67;;
417;SDS011;49;48.530;9.200;2023-12-07T12:53:05;6.27;;;4.30;;
417;SDS011;49;48.530;9.200;2023-12-07T12:55:35;6.03;;;3.83;;
417;SDS011;49;48.530;9.200;2023-12-07T12:58:03;6.57;;;3.77;;
417;SDS011;49;48.530;9.200;2023-12-07T13:00:32;5.00;;;3.60;;
417;SDS011;49;48.530;9.200;2023-12-07T13:02:59;9.40;;;3.90;;
417;SDS011;49;48.530;9.200;2023-12-07T13:05:27;6.07;;;3.60;;
417;SDS011;49;48.530;9.200;2023-12-07T13:07:56;6.33;;;3.63;;
417;SDS011;49;48.530;9.200;2023-12-07T13:10:26;5.60;;;3.87;;
417;SDS011;49;48.530;9.200;2023-12-07T13:12:53;9.53;;;4.37;;
417;SDS011;49;48.530;9.200;2023-12-07T13:15:21;8.87;;;6.20;;
417;SDS011;49;48.530;9.200;2023-12-07T13:17:48;5.53;;;4.20;;
417;SDS011;49;48.530;9.200;2023-12-07T13:20:15;12.53;;;4.40;;
417;SDS011;49;48.530;9.200;2023-12-07T13:22:42;8.77;;;5.83;;
417;SDS011;49;48.530;9.200;2023-12-07T13:25:11;5.73;;;4.00;;
417;SDS011;49;48.530;9.200;2023-12-07T13:27:39;5.90;;;4.17;;
417;SDS011;49;48.530;9.200;2023-12-07T13:30:08;7.93;;;3.90;;
417;SDS011;49;48.530;9.200;2023-12-07T13:32:35;8.97;;;4.80;;
417;SDS011;49;48.530;9.200;2023-12-07T13:35:03;5.77;;;3.90;;
417;SDS011;49;48.530;9.200;2023-12-07T13:37:31;10.73;;;4.63;;
417;SDS011;49;48.530;9.200;2023-12-07T13:39:59;5.97;;;3.87;;
417;SDS011;49;48.530;9.200;2023-12-07T13:42:30;8.23;;;4.87;;
417;SDS011;49;48.530;9.200;2023-12-07T13:44:58;5.73;;;3.87;;
417;SDS011;49;48.530;9.200;2023-12-07T13:47:25;4.23;;;3.50;;
417;SDS011;49;48.530;9.200;2023-12-07T13:49:56;4.50;;;3.90;;
417;SDS011;49;48.530;9.200;2023-12-07T13:52:24;4.83;;;3.90;;
417;SDS011;49;48.530;9.200;2023-12-07T13:54:51;5.27;;;4.43;;
417;SDS011;49;48.530;9.200;2023-12-07T13:57:18;6.40;;;4.70;;
417;SDS011;49;48.530;9.200;2023-12-07T13:59:47;12.10;;;5.30;;
417;SDS011;49;48.530;9.200;2023-12-07T14:02:15;9.17;;;5.53;;
417;SDS011;49;48.530;9.200;2023-12-07T14:04:43;9.60;;;5.30;;
417;SDS011;49;48.530;9.200;2023-12-07T14:07:10;10.43;;;4.27;;
417;SDS011;49;48.530;9.200;2023-12-07T14:09:39;8.70;;;4.27;;
417;SDS011;49;48.530;9.200;2023-12-07T14:12:08;7.43;;;4.47;;
417;SDS011;49;48.530;9.200;2023-12-07T14:14:38;9.23;;;5.83;;
417;SDS011;49;48.530;9.200;2023-12-07T14:17:37;8.90;;;5.80;;
417;SDS011;49;48.530;9.200;2023-12-07T14:20:38;9.93;;;5.70;;
417;SDS011;49;48.530;9.200;2023-12-07T14:23:13;10.17;;;5.53;;
417;SDS011;49;48.530;9.200;2023-12-07T14:26:00;12.27;;;6.47;;
417;SDS011;49;48.530;9.200;2023-12-07T14:28:33;13.10;;;4.40;;
417;SDS011;49;48.530;9.200;2023-12-07T14:31:17;8.70;;;4.10;;
417;SDS011;49;48.530;9.200;2023-12-07T14:36:52;7.70;;;4.77;;
417;SDS011;49;48.530;9.200;2023-12-07T14:39:36;11.53;;;5.43;;
417;SDS011;49;48.530;9.200;2023-12-07T14:42:36;8.37;;;4.90;;
417;SDS011;49;48.530;9.200;2023-12-07T14:45:38;10.37;;;5.80;;
417;SDS011;49;48.530;9.200;2023-12-07T14:51:09;10.20;;;5.53;;
417;SDS011;49;48.530;9.200;2023-12-07T14:53:51;13.63;;;7.37;;
417;SDS011;49;48.530;9.200;2023-12-07T14:59:08;11.00;;;5.77;;
417;SDS011;49;48.530;9.200;2023-12-07T15:01:36;9.43;;;6.13;;
417;SDS011;49;48.530;9.200;2023-12-07T15:25:03;10.93;;;6.53;;
417;SDS011;49;48.530;9.200;2023-12-07T15:27:31;18.57;;;8.60;;
417;SDS011;49;48.530;9.200;2023-12-07T15:29:59;22.47;;;10.40;;
417;SDS011;49;48.530;9.200;2023-12-07T15:32:29;19.10;;;9.30;;
417;SDS011;49;48.530;9.200;2023-12-07T15:34:56;15.83;;;6.07;;
417;SDS011;49;48.530;9.200;2023-12-07T15:37:31;10.27;;;6.77;;
417;SDS011;49;48.530;9.200;2023-12-07T15:40:00;34.13;;;17.97;;
417;SDS011;49;48.530;9.200;2023-12-07T15:42:30;16.90;;;8.87;;
417;SDS011;49;48.530;9.200;2023-12-07T15:45:01;13.73;;;7.10;;
417;SDS011;49;48.530;9.200;2023-12-07T15:47:29;15.57;;;6.83;;
417;SDS011;49;48.530;9.200;2023-12-07T15:49:56;15.63;;;9.60;;
417;SDS011;49;48.530;9.200;2023-12-07T15:52:24;27.77;;;14.27;;
417;SDS011;49;48.530;9.200;2023-12-07T15:54:51;10.43;;;6.77;;
417;SDS011;49;48.530;9.200;2023-12-07T15:57:20;17.20;;;7.70;;
417;SDS011;49;48.530;9.200;2023-12-07T15:59:56;25.80;;;14.27;;
417;SDS011;49;48.530;9.200;2023-12-07T16:02:24;52.37;;;27.20;;
417;SDS011;49;48.530;9.200;2023-12-07T16:04:56;21.00;;;10.00;;
417;SDS011;49;48.530;9.200;2023-12-07T16:10:12;16.40;;;8.90;;
417;SDS011;49;48.530;9.200;2023-12-07T16:12:41;10.73;;;7.60;;
417;SDS011;49;48.530;9.200;2023-12-07T16:15:19;12.17;;;7.17;;
417;SDS011;49;48.530;9.200;2023-12-07T16:17:47;13.93;;;8.87;;
417;SDS011;49;48.530;9.200;2023-12-07T16:20:15;13.37;;;9.00;;
417;SDS011;49;48.530;9.200;2023-12-07T16:22:43;16.70;;;11.60;;